Time;durP1;ratioP1;P1;durP2;ratioP2;P2;SDS_P1;SDS_P2;PMS_P1;PMS_P2;Temp;Humidity;BMP_temperature;BMP_pressure;BME280_temperature;BME280_humidity;BME280_pressure;Samples;Min_cycle;Max_cycle;Signal;HPM_P1;HPM_P2
2022/09/21 00:01:55;;;;;;;21.53;16.37;;;6.60;99.90;;;;;;5088883;28;20514;-68
2022/09/21 00:04:22;;;;;;;18.80;17.40;;;6.60;99.90;;;;;;5094928;28;20469;-68
2022/09/21 00:06:48;;;;;;;18.27;16.70;;;6.60;99.90;;;;;;5095940;28;20461;-67
2022/09/21 00:09:17;;;;;;;22.93;17.37;;;6.50;99.90;;;;;;5093051;28;20548;-69
2022/09/21 00:11:44;;;;;;;18.07;16.23;;;6.60;99.90;;;;;;5099684;28;21454;-68
2022/09/21 00:14:14;;;;;;;21.97;16.37;;;6.50;99.90;;;;;;5099856;28;20991;-67
2022/09/21 00:16:41;;;;;;;20.67;18.47;;;6.50;99.90;;;;;;5104934;28;20948;-67
2022/09/21 00:19:08;;;;;;;21.13;17.90;;;6.40;99.90;;;;;;5094078;28;20468;-68
2022/09/21 00:21:37;;;;;;;17.33;15.87;;;6.50;99.90;;;;;;5094762;28;20457;-68
2022/09/21 00:24:04;;;;;;;17.20;15.97;;;6.50;99.90;;;;;;5095701;28;20461;-67
2022/09/21 00:26:33;;;;;;;15.60;14.43;;;6.50;99.90;;;;;;5094207;28;20460;-70
2022/09/21 00:29:02;;;;;;;16.30;15.00;;;6.50;99.90;;;;;;5097550;28;20492;-69
2022/09/21 00:31:30;;;;;;;16.03;14.63;;;6.50;99.90;;;;;;5092904;28;20454;-70
2022/09/21 00:33:58;;;;;;;16.97;15.67;;;6.40;99.90;;;;;;5097312;28;20564;-70
2022/09/21 00:36:27;;;;;;;17.23;15.90;;;6.30;99.90;;;;;;5095383;28;20453;-68
2022/09/21 00:38:56;;;;;;;16.73;15.43;;;6.20;99.90;;;;;;5097743;28;20543;-68
2022/09/21 00:41:23;;;;;;;18.00;15.77;;;6.20;99.90;;;;;;5095521;28;22972;-70
2022/09/21 00:44:27;;;;;;;18.57;17.13;;;6.30;99.90;;;;;;5092795;28;21020;-70
2022/09/21 00:46:57;;;;;;;16.87;15.67;;;6.30;99.90;;;;;;5091819;28;20470;-68
2022/09/21 00:49:25;;;;;;;17.93;16.10;;;6.20;99.90;;;;;;5094462;28;20493;-70
2022/09/21 00:51:53;;;;;;;17.47;16.00;;;6.10;99.90;;;;;;5091073;28;20458;-68
2022/09/21 00:54:23;;;;;;;17.70;16.30;;;6.10;99.90;;;;;;5094978;28;20460;-68
2022/09/21 00:56:50;;;;;;;17.83;15.90;;;6.00;99.90;;;;;;5093108;28;20469;-68
2022/09/21 00:59:18;;;;;;;19.87;16.57;;;6.00;99.90;;;;;;5098699;28;20485;-68
2022/09/21 01:01:47;;;;;;;17.53;16.03;;;6.00;99.90;;;;;;5098530;28;20459;-70
2022/09/21 01:04:17;;;;;;;17.30;15.97;;;6.00;99.90;;;;;;5095237;28;20464;-69
2022/09/21 01:06:44;;;;;;;17.67;16.27;;;6.00;99.90;;;;;;5093336;28;20480;-68
2022/09/21 01:09:11;;;;;;;18.73;17.13;;;5.90;99.90;;;;;;5091745;28;21119;-69
2022/09/21 01:11:46;;;;;;;18.33;16.80;;;6.00;99.90;;;;;;5096380;28;20470;-69
2022/09/21 01:14:28;;;;;;;18.23;16.90;;;6.00;99.90;;;;;;5094652;28;20917;-68
2022/09/21 01:17:04;;;;;;;17.93;16.30;;;6.00;99.90;;;;;;5092571;28;20493;-68
2022/09/21 01:20:08;;;;;;;19.83;18.10;;;5.90;99.90;;;;;;5097227;28;20470;-68
2022/09/21 01:22:50;;;;;;;19.67;18.27;;;5.90;99.90;;;;;;5095016;28;20465;-69
2022/09/21 01:25:31;;;;;;;18.57;16.80;;;6.00;99.90;;;;;;5089585;28;20476;-68
2022/09/21 01:28:13;;;;;;;19.00;17.30;;;6.00;99.90;;;;;;5087992;28;21029;-68
2022/09/21 01:30:43;;;;;;;19.90;18.30;;;6.00;99.90;;;;;;5088517;28;20491;-68
2022/09/21 01:33:15;;;;;;;19.67;18.00;;;6.00;99.90;;;;;;5092595;28;20462;-68
2022/09/21 01:35:47;;;;;;;19.80;18.03;;;6.00;99.90;;;;;;5103633;28;20564;-66
2022/09/21 01:38:19;;;;;;;20.97;18.83;;;5.90;99.90;;;;;;5093469;28;20459;-69
2022/09/21 01:40:50;;;;;;;19.30;17.70;;;5.90;99.90;;;;;;5092938;28;20466;-69
2022/09/21 01:43:24;;;;;;;18.43;16.90;;;5.80;99.90;;;;;;5098297;28;20457;-69
2022/09/21 01:45:54;;;;;;;19.60;18.07;;;5.70;99.90;;;;;;5094340;28;20449;-69
2022/09/21 01:48:24;;;;;;;20.17;18.27;;;5.70;99.90;;;;;;5092082;28;20969;-69
2022/09/21 01:50:55;;;;;;;19.33;17.33;;;5.70;99.90;;;;;;5094526;28;20965;-67
2022/09/21 01:53:28;;;;;;;19.30;17.90;;;5.60;99.90;;;;;;5099490;28;20482;-69
2022/09/21 01:55:59;;;;;;;19.77;18.47;;;5.70;99.90;;;;;;5092288;28;20458;-69
2022/09/21 01:58:33;;;;;;;22.27;20.43;;;5.70;99.90;;;;;;5091317;28;20552;-68
2022/09/21 02:01:05;;;;;;;19.47;17.97;;;5.70;99.90;;;;;;5096475;28;20520;-68
2022/09/21 02:03:37;;;;;;;19.80;17.90;;;5.60;99.90;;;;;;5095869;28;20461;-69
2022/09/21 02:06:05;;;;;;;20.50;18.90;;;5.50;99.90;;;;;;5092401;28;20458;-68
2022/09/21 02:08:33;;;;;;;20.57;18.17;;;5.50;99.90;;;;;;5096510;28;20457;-68
2022/09/21 02:11:03;;;;;;;20.27;18.87;;;5.50;99.90;;;;;;5095460;28;20493;-68
2022/09/21 02:13:34;;;;;;;20.47;18.70;;;5.40;99.90;;;;;;5097730;28;20525;-68
2022/09/21 02:16:20;;;;;;;19.33;17.87;;;5.40;99.90;;;;;;5094969;28;20450;-68
2022/09/21 02:18:57;;;;;;;19.10;17.60;;;5.40;99.90;;;;;;5093767;28;20495;-68
2022/09/21 02:21:30;;;;;;;20.10;18.33;;;5.40;99.90;;;;;;5095281;28;20799;-69
2022/09/21 02:24:06;;;;;;;19.80;18.23;;;5.40;99.90;;;;;;5093291;28;20470;-67
2022/09/21 02:26:39;;;;;;;20.27;18.57;;;5.40;99.90;;;;;;5091506;28;20554;-69
2022/09/21 02:29:16;;;;;;;20.90;18.83;;;5.30;99.90;;;;;;5090798;28;20709;-69
2022/09/21 02:31:49;;;;;;;20.50;18.80;;;5.30;99.90;;;;;;5091086;28;20613;-67
2022/09/21 02:34:22;;;;;;;29.70;21.03;;;5.30;99.90;;;;;;5090105;28;20457;-67
2022/09/21 02:36:53;;;;;;;19.93;18.40;;;5.20;99.90;;;;;;5091932;28;20483;-67
2022/09/21 02:39:29;;;;;;;20.30;18.67;;;5.20;99.90;;;;;;5092194;28;20460;-67
2022/09/21 02:42:06;;;;;;;20.47;18.53;;;5.20;99.90;;;;;;5093178;28;20756;-67
2022/09/21 02:44:39;;;;;;;20.20;18.50;;;5.20;99.90;;;;;;5096606;28;20461;-70
2022/09/21 02:47:12;;;;;;;33.40;19.10;;;5.20;99.90;;;;;;5091487;28;20459;-69
2022/09/21 02:49:43;;;;;;;22.20;20.10;;;5.20;99.90;;;;;;5088949;28;20458;-69
2022/09/21 02:52:13;;;;;;;22.40;20.33;;;5.30;99.90;;;;;;5095452;28;20522;-68
2022/09/21 02:54:43;;;;;;;22.13;19.90;;;5.30;99.90;;;;;;5089913;28;20836;-67
2022/09/21 02:57:11;;;;;;;22.47;19.90;;;5.40;99.90;;;;;;5095345;28;20983;-67
2022/09/21 02:59:38;;;;;;;20.43;18.77;;;5.40;99.90;;;;;;5094474;28;20471;-68
2022/09/21 03:02:06;;;;;;;20.80;18.70;;;5.30;99.90;;;;;;5093049;28;20469;-69
2022/09/21 03:04:35;;;;;;;20.20;18.60;;;5.20;99.90;;;;;;5089727;28;20471;-68
2022/09/21 03:07:03;;;;;;;21.13;19.10;;;5.10;99.90;;;;;;5091503;28;20875;-69
2022/09/21 03:09:32;;;;;;;20.90;19.30;;;5.00;99.90;;;;;;5090093;28;20480;-69
2022/09/21 03:12:00;;;;;;;20.40;18.60;;;5.00;99.90;;;;;;5095129;28;20517;-67
2022/09/21 03:14:27;;;;;;;21.87;19.90;;;5.10;99.90;;;;;;5097695;28;20467;-68
2022/09/21 03:16:54;;;;;;;21.33;19.63;;;5.10;99.90;;;;;;5089402;28;20866;-68
2022/09/21 03:19:21;;;;;;;19.83;18.23;;;5.20;99.90;;;;;;5091790;28;20503;-69
2022/09/21 03:21:49;;;;;;;20.33;18.70;;;5.20;99.90;;;;;;5092178;28;20453;-68
2022/09/21 03:24:44;;;;;;;22.20;20.30;;;5.20;99.90;;;;;;5091920;28;20480;-67
2022/09/21 03:27:03;;;;;;;20.70;19.10;;;5.10;99.90;;;;;;5096739;28;20451;-69
2022/09/21 03:29:30;;;;;;;21.67;19.63;;;5.00;99.90;;;;;;5095054;28;20562;-70
2022/09/21 03:31:57;;;;;;;21.70;19.67;;;4.90;99.90;;;;;;5089687;28;20501;-69
2022/09/21 03:34:24;;;;;;;22.87;20.60;;;4.90;99.90;;;;;;5092671;28;20458;-68
2022/09/21 03:36:55;;;;;;;22.27;20.33;;;4.80;99.90;;;;;;5092989;28;20469;-69
2022/09/21 03:39:22;;;;;;;21.27;19.57;;;4.80;99.90;;;;;;5092832;28;20462;-68
2022/09/21 03:41:49;;;;;;;22.43;20.47;;;4.80;99.90;;;;;;5098239;28;20450;-68
2022/09/21 03:44:16;;;;;;;21.10;19.40;;;4.80;99.90;;;;;;5103402;28;20460;-68
2022/09/21 03:46:43;;;;;;;22.17;19.80;;;4.80;99.90;;;;;;5094519;28;20964;-69
2022/09/21 03:49:10;;;;;;;22.27;20.07;;;4.80;99.90;;;;;;5093206;28;20452;-68
2022/09/21 03:51:38;;;;;;;22.30;20.27;;;4.80;99.90;;;;;;5101498;28;20489;-70
2022/09/21 03:54:06;;;;;;;21.13;19.30;;;4.70;99.90;;;;;;5093744;28;20870;-69
2022/09/21 03:56:33;;;;;;;21.17;19.40;;;4.60;99.90;;;;;;5096606;28;20541;-68
2022/09/21 03:59:00;;;;;;;21.20;19.40;;;4.60;99.90;;;;;;5091978;28;20473;-69
2022/09/21 04:01:27;;;;;;;21.53;19.53;;;4.60;99.90;;;;;;5092499;28;20473;-67
2022/09/21 04:03:54;;;;;;;20.43;18.83;;;4.60;99.90;;;;;;5093502;28;20929;-69
2022/09/21 04:06:21;;;;;;;21.97;20.10;;;4.70;99.90;;;;;;5090812;28;20536;-68
2022/09/21 04:08:47;;;;;;;22.63;20.50;;;4.60;99.90;;;;;;5097698;28;21003;-69
2022/09/21 04:11:18;;;;;;;21.20;19.40;;;4.60;99.90;;;;;;5095413;28;20494;-69
2022/09/21 04:13:48;;;;;;;22.10;19.33;;;4.60;99.90;;;;;;5096896;28;20961;-68
2022/09/21 04:16:16;;;;;;;25.77;19.90;;;4.60;99.90;;;;;;5094288;28;20449;-69
2022/09/21 04:18:44;;;;;;;22.33;20.47;;;4.50;99.90;;;;;;5096981;28;20509;-68
2022/09/21 04:21:10;;;;;;;22.40;20.63;;;4.50;99.90;;;;;;5094997;28;20690;-67
2022/09/21 04:23:37;;;;;;;23.13;21.13;;;4.60;99.90;;;;;;5098182;28;20465;-69
2022/09/21 04:26:04;;;;;;;24.40;22.20;;;4.50;99.90;;;;;;5092466;28;20972;-67
2022/09/21 04:28:32;;;;;;;23.83;21.83;;;4.60;99.90;;;;;;5095880;28;20821;-68
2022/09/21 04:30:59;;;;;;;23.00;21.10;;;4.70;99.90;;;;;;5090211;28;20510;-70
2022/09/21 04:33:25;;;;;;;22.60;20.57;;;4.80;99.90;;;;;;5096218;28;20462;-69
2022/09/21 04:35:55;;;;;;;23.33;21.47;;;4.70;99.90;;;;;;5103332;28;20601;-69
2022/09/21 04:38:22;;;;;;;23.30;21.50;;;4.60;99.90;;;;;;5093560;28;21032;-70
2022/09/21 04:40:55;;;;;;;22.57;20.67;;;4.50;99.90;;;;;;5090832;28;20466;-67
2022/09/21 04:43:22;;;;;;;23.17;21.03;;;4.50;99.90;;;;;;5089442;28;20548;-67
2022/09/21 04:45:51;;;;;;;24.97;22.33;;;4.40;99.90;;;;;;5096816;28;20472;-69
2022/09/21 04:48:17;;;;;;;24.20;22.20;;;4.50;99.90;;;;;;5097172;28;20696;-69
2022/09/21 04:50:48;;;;;;;25.83;22.93;;;4.50;99.90;;;;;;5091586;28;20954;-69
2022/09/21 04:53:14;;;;;;;24.40;22.40;;;4.70;99.90;;;;;;5094160;28;21007;-68
2022/09/21 04:55:41;;;;;;;22.30;20.70;;;4.70;99.90;;;;;;5094618;28;20457;-69
2022/09/21 04:58:08;;;;;;;25.20;22.80;;;4.90;99.90;;;;;;5093076;28;20504;-69
2022/09/21 05:00:34;;;;;;;25.00;22.63;;;5.00;99.90;;;;;;5092959;28;20461;-67
2022/09/21 05:03:03;;;;;;;26.70;22.90;;;5.10;99.90;;;;;;5096670;28;20485;-69
2022/09/21 05:05:30;;;;;;;28.90;23.83;;;5.10;99.90;;;;;;5094132;28;20523;-69
2022/09/21 05:07:57;;;;;;;24.20;22.07;;;5.20;99.90;;;;;;5089843;28;20953;-66
2022/09/21 05:10:24;;;;;;;24.77;22.57;;;5.20;99.90;;;;;;5096521;28;20577;-70
2022/09/21 05:12:51;;;;;;;24.63;22.50;;;5.30;99.90;;;;;;5095253;28;20895;-70
2022/09/21 05:15:19;;;;;;;25.63;23.23;;;5.30;99.90;;;;;;5094441;28;20545;-68
2022/09/21 05:17:46;;;;;;;23.60;21.40;;;5.40;99.90;;;;;;5094232;28;21043;-67
2022/09/21 05:20:15;;;;;;;25.30;22.93;;;5.50;99.90;;;;;;5093473;28;20544;-69
2022/09/21 05:22:41;;;;;;;24.70;22.80;;;5.50;99.90;;;;;;5091119;28;20465;-69
2022/09/21 05:25:10;;;;;;;24.50;22.50;;;5.60;99.90;;;;;;5090723;28;20478;-69
2022/09/21 05:27:36;;;;;;;24.97;22.97;;;5.60;99.90;;;;;;5098097;28;20519;-69
2022/09/21 05:30:05;;;;;;;23.57;21.63;;;5.70;99.90;;;;;;5092152;28;20955;-68
2022/09/21 05:32:43;;;;;;;24.00;21.63;;;5.80;99.90;;;;;;5094705;28;20478;-69
2022/09/21 05:35:18;;;;;;;23.00;21.20;;;5.90;99.90;;;;;;5090046;28;20478;-69
2022/09/21 05:37:51;;;;;;;24.97;22.80;;;5.90;99.90;;;;;;5093615;28;20515;-69
2022/09/21 05:40:19;;;;;;;23.40;21.60;;;6.00;99.90;;;;;;5095768;28;20472;-70
2022/09/21 05:42:46;;;;;;;24.53;22.43;;;6.00;99.90;;;;;;5092316;28;20473;-69
2022/09/21 05:45:15;;;;;;;25.23;23.30;;;6.10;99.90;;;;;;5089793;28;20948;-68
2022/09/21 05:47:54;;;;;;;26.10;23.90;;;6.10;99.90;;;;;;5089378;28;20937;-68
2022/09/21 05:50:37;;;;;;;27.83;24.27;;;6.20;99.90;;;;;;5099961;28;20605;-67
2022/09/21 05:53:19;;;;;;;23.50;21.50;;;6.40;99.90;;;;;;5095868;28;20460;-68
2022/09/21 05:55:55;;;;;;;26.20;23.40;;;6.50;99.90;;;;;;5088339;28;20450;-69
2022/09/21 05:58:29;;;;;;;23.70;21.80;;;6.60;99.90;;;;;;5094035;28;20472;-69
2022/09/21 06:01:13;;;;;;;27.13;23.43;;;6.80;99.90;;;;;;5092531;28;20469;-69
2022/09/21 06:03:42;;;;;;;24.10;22.27;;;6.90;99.90;;;;;;5095428;28;20985;-67
2022/09/21 06:06:10;;;;;;;24.23;22.10;;;7.00;99.90;;;;;;5087183;28;22426;-68
2022/09/21 06:08:36;;;;;;;25.17;23.17;;;7.10;99.90;;;;;;5085698;28;21120;-69
2022/09/21 06:11:04;;;;;;;27.80;25.20;;;7.20;99.90;;;;;;5090696;28;20483;-69
2022/09/21 06:13:30;;;;;;;25.37;22.80;;;7.40;99.90;;;;;;5089726;28;20471;-67
2022/09/21 06:16:01;;;;;;;28.03;24.63;;;7.50;99.90;;;;;;5089295;28;20822;-69
2022/09/21 06:18:27;;;;;;;26.60;24.30;;;7.60;99.90;;;;;;5089774;28;20460;-71
2022/09/21 06:20:55;;;;;;;26.20;23.67;;;7.80;99.90;;;;;;5089848;28;20530;-69
2022/09/21 06:23:23;;;;;;;25.20;22.63;;;7.90;99.90;;;;;;5091671;28;20461;-69
2022/09/21 06:25:52;;;;;;;29.87;24.23;;;8.10;99.90;;;;;;5089239;28;20469;-67
2022/09/21 06:28:20;;;;;;;26.27;24.07;;;8.20;99.90;;;;;;5093810;28;20487;-69
2022/09/21 06:30:53;;;;;;;23.67;21.70;;;8.40;99.90;;;;;;5092848;28;20838;-68
2022/09/21 06:33:22;;;;;;;28.73;23.80;;;8.50;99.90;;;;;;5097457;28;20481;-67
2022/09/21 06:35:54;;;;;;;24.87;22.27;;;8.60;99.90;;;;;;5093208;28;20584;-69
2022/09/21 06:38:23;;;;;;;25.77;23.17;;;8.80;99.90;;;;;;5090981;28;20777;-69
2022/09/21 06:40:50;;;;;;;26.00;23.77;;;9.00;99.90;;;;;;5097400;28;20859;-68
2022/09/21 06:43:17;;;;;;;26.43;23.93;;;9.20;99.90;;;;;;5090490;28;20465;-68
2022/09/21 06:45:45;;;;;;;28.07;25.47;;;9.30;99.90;;;;;;5092697;28;20458;-69
2022/09/21 06:48:12;;;;;;;28.37;25.47;;;9.50;99.90;;;;;;5094411;28;20986;-67
2022/09/21 06:50:40;;;;;;;32.80;26.77;;;9.60;99.90;;;;;;5091854;28;23155;-68
2022/09/21 06:53:07;;;;;;;30.30;25.40;;;9.80;99.90;;;;;;5090647;28;21062;-68
2022/09/21 06:55:35;;;;;;;27.23;24.50;;;9.80;99.90;;;;;;5092054;28;20457;-67
2022/09/21 06:58:02;;;;;;;26.07;23.33;;;10.00;99.90;;;;;;5089815;28;20458;-68
2022/09/21 07:00:29;;;;;;;31.03;22.77;;;10.00;99.90;;;;;;5086469;28;20557;-67
2022/09/21 07:02:57;;;;;;;25.73;23.20;;;10.20;99.90;;;;;;5092495;28;21037;-68
2022/09/21 07:05:24;;;;;;;28.20;24.63;;;10.20;99.90;;;;;;5090725;28;20486;-67
2022/09/21 07:07:56;;;;;;;25.73;23.17;;;10.30;99.90;;;;;;5092205;28;20459;-68
2022/09/21 07:10:23;;;;;;;29.93;24.17;;;10.40;99.90;;;;;;5091794;28;21068;-67
2022/09/21 07:12:52;;;;;;;25.23;22.83;;;10.50;99.90;;;;;;5089394;28;20492;-68
2022/09/21 07:15:20;;;;;;;25.50;23.00;;;10.70;99.90;;;;;;5089637;28;20479;-68
2022/09/21 07:17:47;;;;;;;26.83;24.17;;;10.80;99.90;;;;;;5090219;28;20972;-69
2022/09/21 07:20:14;;;;;;;27.90;25.20;;;11.00;99.90;;;;;;5098919;28;20450;-68
2022/09/21 07:22:42;;;;;;;28.90;24.77;;;11.10;99.90;;;;;;5091367;28;20553;-69
2022/09/21 07:25:09;;;;;;;28.60;25.80;;;11.00;99.90;;;;;;5087972;28;20503;-68
2022/09/21 07:27:36;;;;;;;36.03;26.67;;;11.20;99.90;;;;;;5092218;28;20485;-68
2022/09/21 07:30:06;;;;;;;31.57;28.23;;;11.40;99.90;;;;;;5090394;28;20461;-68
2022/09/21 07:32:33;;;;;;;28.27;25.10;;;11.40;99.90;;;;;;5089453;28;20493;-70
2022/09/21 07:35:01;;;;;;;28.73;25.60;;;11.50;99.90;;;;;;5091537;28;20458;-68
2022/09/21 07:37:28;;;;;;;29.57;26.10;;;11.60;99.90;;;;;;5096597;28;20464;-70
2022/09/21 07:39:55;;;;;;;32.13;25.63;;;11.70;99.90;;;;;;5088000;28;20458;-68
2022/09/21 07:42:25;;;;;;;31.27;27.97;;;11.70;99.90;;;;;;5089053;28;20993;-68
2022/09/21 07:44:53;;;;;;;29.57;26.47;;;11.70;99.90;;;;;;5096741;28;20460;-70
2022/09/21 07:47:24;;;;;;;27.27;23.83;;;11.80;99.90;;;;;;5087394;28;21436;-70
2022/09/21 07:49:51;;;;;;;28.73;25.00;;;11.70;99.90;;;;;;5093122;28;20449;-68
2022/09/21 07:52:20;;;;;;;28.63;25.63;;;11.60;99.90;;;;;;5093900;28;20498;-68
2022/09/21 07:54:47;;;;;;;29.20;24.37;;;11.60;99.90;;;;;;5094654;28;20897;-68
2022/09/21 07:59:59;;;;;;;32.67;25.63;;;11.60;99.90;;;;;;5094003;28;20498;-68
2022/09/21 08:02:27;;;;;;;29.67;26.57;;;11.60;99.90;;;;;;5089456;28;20803;-68
2022/09/21 08:04:54;;;;;;;35.43;26.87;;;11.60;99.90;;;;;;5089130;28;20454;-70
2022/09/21 08:07:22;;;;;;;35.53;26.07;;;11.50;99.90;;;;;;5089791;28;20469;-68
2022/09/21 08:09:50;;;;;;;53.50;28.20;;;11.40;99.90;;;;;;5094470;28;20572;-67
2022/09/21 08:12:18;;;;;;;32.70;25.13;;;11.40;99.90;;;;;;5087826;28;20566;-68
2022/09/21 08:14:45;;;;;;;32.60;26.87;;;11.40;99.90;;;;;;5095159;28;20458;-68
2022/09/21 08:17:12;;;;;;;33.77;28.20;;;11.50;99.90;;;;;;5094003;28;20475;-68
2022/09/21 08:19:40;;;;;;;32.23;27.30;;;11.50;99.90;;;;;;5089846;28;20826;-67
2022/09/21 08:22:10;;;;;;;29.50;25.77;;;11.70;99.90;;;;;;5087725;28;20466;-68
2022/09/21 08:24:43;;;;;;;29.13;26.13;;;11.60;99.90;;;;;;5091119;28;20466;-67
2022/09/21 08:27:10;;;;;;;32.17;28.87;;;11.80;99.90;;;;;;5092826;28;20932;-70
2022/09/21 08:29:37;;;;;;;38.77;28.77;;;11.90;99.90;;;;;;5095680;28;20469;-67
2022/09/21 08:32:04;;;;;;;40.50;28.87;;;12.00;99.90;;;;;;5097633;28;21006;-68
2022/09/21 08:34:31;;;;;;;31.60;27.40;;;12.00;99.90;;;;;;5094742;28;20493;-68
2022/09/21 08:36:59;;;;;;;35.90;29.03;;;12.00;99.90;;;;;;5092521;28;20457;-68
2022/09/21 08:39:26;;;;;;;37.20;29.60;;;12.10;99.90;;;;;;5093912;28;20477;-69
2022/09/21 08:42:09;;;;;;;39.17;29.97;;;12.20;99.90;;;;;;5095859;28;20952;-70
2022/09/21 08:44:40;;;;;;;37.80;28.40;;;12.30;99.90;;;;;;5099000;28;20453;-68
2022/09/21 08:47:13;;;;;;;38.33;31.13;;;12.40;99.90;;;;;;5097823;28;20465;-67
2022/09/21 08:49:43;;;;;;;32.87;28.77;;;12.50;99.90;;;;;;5094518;28;20508;-68
2022/09/21 08:52:16;;;;;;;34.00;28.50;;;12.70;99.90;;;;;;5093922;28;20477;-69
2022/09/21 08:54:47;;;;;;;34.93;27.57;;;12.90;99.90;;;;;;5098400;28;20461;-70
2022/09/21 08:57:15;;;;;;;38.10;29.10;;;13.00;99.90;;;;;;5092496;28;21077;-68
2022/09/21 08:59:45;;;;;;;45.17;30.20;;;13.00;99.90;;;;;;5093962;28;20469;-67
2022/09/21 09:02:32;;;;;;;38.37;30.17;;;12.80;99.90;;;;;;5090798;28;20453;-69
2022/09/21 09:05:07;;;;;;;33.07;29.20;;;13.00;99.90;;;;;;5094976;28;20453;-68
2022/09/21 09:07:52;;;;;;;34.73;30.70;;;13.20;99.90;;;;;;5095905;28;20454;-68
2022/09/21 09:10:36;;;;;;;32.90;29.40;;;13.30;99.90;;;;;;5097431;28;20473;-68
2022/09/21 09:13:19;;;;;;;33.07;27.80;;;13.40;99.90;;;;;;5089516;28;20525;-68
2022/09/21 09:15:59;;;;;;;28.90;25.67;;;13.60;99.90;;;;;;5093322;28;20461;-68
2022/09/21 09:18:34;;;;;;;32.00;28.60;;;13.70;99.90;;;;;;5088160;28;20555;-68
2022/09/21 09:21:04;;;;;;;32.10;28.63;;;13.80;99.90;;;;;;5093547;28;20924;-68
2022/09/21 09:23:37;;;;;;;30.67;27.67;;;13.90;99.90;;;;;;5089888;28;21146;-68
2022/09/21 09:26:09;;;;;;;30.90;27.70;;;14.10;99.90;;;;;;5095358;28;20494;-68
2022/09/21 09:28:41;;;;;;;32.17;28.83;;;14.30;99.90;;;;;;5091699;28;21031;-69
2022/09/21 09:31:16;;;;;;;32.13;28.70;;;14.80;99.90;;;;;;5097590;28;20538;-70
2022/09/21 09:33:52;;;;;;;32.30;29.03;;;15.50;99.90;;;;;;5092480;28;20580;-70
2022/09/21 09:36:18;;;;;;;30.33;26.40;;;16.60;99.90;;;;;;5089936;28;20922;-70
2022/09/21 09:38:55;;;;;;;28.13;25.47;;;17.20;99.90;;;;;;5090708;28;20457;-69
2022/09/21 09:41:51;;;;;;;29.17;26.37;;;18.10;99.90;;;;;;5091110;28;20575;-69
2022/09/21 09:44:31;;;;;;;28.17;25.67;;;18.70;99.90;;;;;;5090004;28;20453;-68
2022/09/21 09:47:07;;;;;;;28.97;25.17;;;19.10;99.90;;;;;;5089783;28;20486;-71
2022/09/21 09:49:44;;;;;;;25.83;23.67;;;19.60;99.90;;;;;;5092259;28;20462;-69
2022/09/21 09:52:15;;;;;;;26.93;24.17;;;20.40;99.90;;;;;;5091753;28;21027;-68
2022/09/21 09:54:44;;;;;;;25.70;23.10;;;20.60;99.90;;;;;;5088835;28;20851;-69
2022/09/21 09:57:11;;;;;;;27.07;24.80;;;20.60;99.90;;;;;;5091758;28;20512;-72
2022/09/21 09:59:43;;;;;;;24.90;22.40;;;20.90;99.90;;;;;;5093234;28;21430;-70
2022/09/21 10:02:20;;;;;;;24.53;22.17;;;21.10;99.90;;;;;;5090129;28;20486;-71
2022/09/21 10:05:02;;;;;;;26.63;24.03;;;21.00;99.90;;;;;;5095383;28;20461;-69
2022/09/21 10:07:37;;;;;;;25.57;23.50;;;20.80;99.90;;;;;;5091735;28;20465;-72
2022/09/21 10:10:37;;;;;;;23.80;21.10;;;20.60;99.90;;;;;;5099322;28;20488;-69
2022/09/21 10:13:13;;;;;;;24.73;22.30;;;20.40;99.90;;;;;;5091020;28;20706;-71
2022/09/21 10:15:48;;;;;;;23.97;21.67;;;20.30;99.90;;;;;;5094153;28;20867;-69
2022/09/21 10:18:19;;;;;;;24.27;22.37;;;19.80;99.90;;;;;;5096448;28;20473;-69
2022/09/21 10:20:59;;;;;;;23.70;21.50;;;19.30;99.90;;;;;;5095350;28;20543;-70
2022/09/21 10:23:28;;;;;;;24.10;21.73;;;20.00;99.90;;;;;;5089456;28;20647;-69
2022/09/21 10:26:03;;;;;;;23.40;21.10;;;20.40;99.90;;;;;;5093872;28;20474;-70
2022/09/21 10:28:32;;;;;;;23.97;22.03;;;21.20;99.90;;;;;;5087927;28;20895;-69
2022/09/21 10:31:11;;;;;;;25.77;23.00;;;22.30;99.90;;;;;;5089008;28;20531;-68
2022/09/21 10:33:49;;;;;;;22.60;20.47;;;22.40;99.90;;;;;;5096737;28;20675;-68
2022/09/21 10:36:38;;;;;;;24.30;22.30;;;23.00;99.90;;;;;;5089944;28;20450;-69
2022/09/21 10:39:27;;;;;;;24.40;22.00;;;23.50;99.90;;;;;;5081557;28;20459;-72
2022/09/21 10:42:02;;;;;;;22.87;20.30;;;23.70;99.90;;;;;;5081059;28;20461;-71
2022/09/21 10:44:37;;;;;;;21.83;20.13;;;23.20;99.90;;;;;;5091196;28;20453;-69
2022/09/21 10:47:16;;;;;;;22.37;20.20;;;23.30;99.90;;;;;;5091220;28;20452;-69
2022/09/21 10:49:45;;;;;;;21.93;20.50;;;23.80;99.60;;;;;;5088335;28;20965;-69
2022/09/21 10:52:11;;;;;;;22.63;21.03;;;24.20;98.60;;;;;;5090010;28;20934;-68
2022/09/21 10:54:41;;;;;;;21.00;19.40;;;24.20;97.40;;;;;;5092439;28;20971;-69
2022/09/21 10:57:15;;;;;;;22.10;20.17;;;23.90;99.20;;;;;;5093286;28;20470;-71
2022/09/21 10:59:41;;;;;;;19.90;18.30;;;24.30;97.60;;;;;;5089697;28;20454;-69
2022/09/21 11:02:28;;;;;;;20.07;18.60;;;24.70;96.50;;;;;;5091610;28;20473;-69
2022/09/21 11:04:59;;;;;;;19.33;17.93;;;24.80;94.80;;;;;;5086440;28;20857;-69
2022/09/21 11:07:32;;;;;;;19.63;18.00;;;24.50;95.00;;;;;;5090330;28;20465;-69
2022/09/21 11:10:09;;;;;;;19.20;17.90;;;24.00;94.70;;;;;;5092955;28;20478;-69
2022/09/21 11:12:48;;;;;;;19.47;17.70;;;23.60;93.90;;;;;;5094450;28;20485;-69
2022/09/21 11:15:25;;;;;;;17.63;16.47;;;23.80;94.30;;;;;;5089805;28;20461;-68
2022/09/21 11:17:58;;;;;;;18.10;16.70;;;24.30;92.60;;;;;;5085959;28;20964;-72
2022/09/21 11:20:30;;;;;;;23.00;16.10;;;24.20;93.30;;;;;;5091355;28;20465;-68
2022/09/21 11:23:03;;;;;;;17.47;16.17;;;24.80;91.50;;;;;;5090579;28;20473;-68
2022/09/21 11:25:41;;;;;;;16.80;15.80;;;24.90;90.20;;;;;;5091640;28;20466;-71
2022/09/21 11:28:16;;;;;;;17.43;16.03;;;25.30;88.50;;;;;;5093813;28;20481;-68
2022/09/21 11:31:03;;;;;;;17.23;16.03;;;25.60;85.50;;;;;;5093655;28;20471;-68
2022/09/21 11:36:43;;;;;;;16.97;15.67;;;26.20;77.90;;;;;;5086273;28;20450;-69
2022/09/21 11:39:19;;;;;;;16.67;15.47;;;26.00;74.30;;;;;;5093375;28;20955;-70
2022/09/21 11:41:59;;;;;;;16.90;15.40;;;26.20;71.90;;;;;;5089339;28;20462;-69
2022/09/21 11:44:44;;;;;;;17.50;16.13;;;26.00;74.00;;;;;;5090379;28;20458;-69
2022/09/21 11:47:22;;;;;;;17.23;16.10;;;26.90;72.20;;;;;;5088706;28;20450;-70
2022/09/21 11:50:07;;;;;;;16.50;15.40;;;27.10;72.40;;;;;;5094144;28;20504;-70
2022/09/21 11:52:46;;;;;;;18.57;16.97;;;26.80;63.30;;;;;;5092912;28;20496;-72
2022/09/21 11:55:48;;;;;;;18.10;16.77;;;26.50;66.50;;;;;;5087754;28;20560;-70
2022/09/21 11:58:28;;;;;;;17.87;16.60;;;26.00;66.20;;;;;;5094811;28;20461;-69
2022/09/21 12:01:03;;;;;;;17.30;16.23;;;26.80;65.20;;;;;;5087147;28;20564;-70
2022/09/21 12:03:54;;;;;;;17.93;16.83;;;26.70;63.50;;;;;;5094405;28;20465;-70
2022/09/21 12:06:37;;;;;;;17.73;16.40;;;26.30;62.30;;;;;;5091332;28;20499;-72
2022/09/21 12:09:29;;;;;;;16.30;15.20;;;26.40;65.50;;;;;;5092367;28;20999;-71
2022/09/21 12:12:05;;;;;;;16.93;15.53;;;26.60;61.20;;;;;;5094116;28;20458;-70
2022/09/21 12:14:41;;;;;;;16.03;14.90;;;26.40;59.30;;;;;;5086571;28;20482;-71
2022/09/21 12:17:16;;;;;;;16.80;15.43;;;26.40;62.60;;;;;;5091262;28;20970;-70
2022/09/21 12:19:49;;;;;;;16.80;15.60;;;26.50;58.70;;;;;;5091243;28;21001;-70
2022/09/21 12:22:20;;;;;;;17.07;15.80;;;26.40;58.70;;;;;;5093937;28;20830;-69
2022/09/21 12:24:50;;;;;;;16.27;14.90;;;26.70;57.20;;;;;;5092192;28;20464;-70
2022/09/21 12:27:26;;;;;;;17.20;16.27;;;26.70;56.30;;;;;;5096491;28;20449;-69
2022/09/21 12:29:55;;;;;;;17.60;16.40;;;26.50;54.00;;;;;;5096249;28;20462;-67
2022/09/21 12:32:30;;;;;;;18.73;17.10;;;27.20;55.10;;;;;;5090431;28;20480;-68
2022/09/21 12:35:00;;;;;;;18.27;17.03;;;27.60;55.10;;;;;;5092503;28;20453;-68
2022/09/21 12:37:33;;;;;;;17.13;16.00;;;27.50;54.50;;;;;;5095646;28;20491;-68
2022/09/21 12:40:06;;;;;;;18.03;16.87;;;27.80;52.50;;;;;;5094716;28;20468;-69
2022/09/21 12:42:41;;;;;;;16.00;14.80;;;26.50;53.40;;;;;;5090968;28;20462;-68
2022/09/21 12:45:16;;;;;;;16.53;15.53;;;27.40;54.00;;;;;;5091422;28;20464;-68
2022/09/21 12:47:56;;;;;;;16.50;15.40;;;27.40;55.50;;;;;;5096130;28;20467;-68
2022/09/21 12:50:29;;;;;;;16.20;15.20;;;27.40;51.00;;;;;;5094811;28;20530;-68
2022/09/21 12:52:57;;;;;;;17.13;16.13;;;27.30;51.50;;;;;;5088311;28;20484;-68
2022/09/21 12:55:44;;;;;;;16.50;15.60;;;27.40;48.90;;;;;;5092854;28;20458;-69
2022/09/21 12:58:34;;;;;;;16.07;15.07;;;27.20;49.70;;;;;;5091173;28;20544;-67
2022/09/21 13:01:11;;;;;;;16.03;15.13;;;27.10;49.80;;;;;;5090749;28;20465;-70
2022/09/21 13:03:51;;;;;;;17.17;15.80;;;27.30;51.00;;;;;;5094432;28;21002;-70